Date,TemperatureHighF,TemperatureAvgF,TemperatureLowF,DewpointHighF,DewpointAvgF,DewpointLowF,HumidityHigh,HumidityAvg,HumidityLow,PressureMaxIn,PressureMinIn,WindSpeedMaxMPH,WindSpeedAvgMPH,GustSpeedMaxMPH,PrecipitationSumIn
2012-1-1,53,45,39,36,26,17,67,48,25,30.63,30.13,22,2,22,0.00
2012-1-2,42,35,26,24,11,5,59,37,23,30.79,30.58,15,1,15,0.00
2012-1-3,53,38,22,26,19,12,76,49,29,30.59,30.17,26,3,26,0.00
2012-1-4,60,45,31,32,27,24,80,51,28,30.35,30.15,17,1,17,0.00
2012-1-5,66,48,31,32,29,26,85,53,26,30.33,29.99,17,1,17,0.00
2012-1-6,68,51,36,43,36,30,83,57,32,29.99,29.80,19,1,19,0.00
2012-1-7,57,47,38,34,28,24,66,48,29,30.14,29.99,16,2,16,0.00
2012-1-8,52,46,37,31,28,26,74,51,42,30.26,30.12,14,1,14,0.00
2012-1-9,52,41,30,31,27,21,87,61,31,30.30,30.15,13,1,13,0.00
2012-1-10,48,43,34,37,29,25,80,59,48,30.15,29.77,10,1,10,0.00
2012-1-11,60,40,28,35,30,23,93,70,35,30.06,29.67,27,4,27,0.00
2012-1-12,33,27,21,23,9,1,81,48,31,30.20,30.05,22,6,22,0.00
2012-1-13,46,34,20,19,10,0,63,39,23,30.29,30.13,7,0,7,0.00
2012-1-14,53,41,30,24,22,19,71,48,29,30.30,30.09,17,1,19,0.00
2012-1-15,62,47,30,44,29,21,70,51,24,30.28,29.93,31,5,32,0.00
2012-1-16,70,62,55,58,52,44,83,72,53,29.93,29.70,33,9,33,0.00
2012-1-17,63,35,24,57,22,13,82,58,39,30.45,29.70,23,5,23,0.00
2012-1-18,44,32,20,24,17,12,79,56,31,30.42,29.99,17,1,17,0.00
2012-1-19,52,40,32,32,27,22,74,61,43,29.99,29.82,14,1,14,0.00
2012-1-20,42,33,25,36,26,19,88,77,62,30.11,29.74,23,2,23,0.00
2012-1-21,41,30,18,36,19,10,82,64,49,30.22,29.81,20,3,21,0.00
2012-1-22,69,50,41,52,40,25,90,73,20,29.86,29.42,39,8,39,0.00
2012-1-23,57,41,32,34,27,20,81,61,24,30.09,29.84,15,0,15,0.00
2012-1-24,61,47,31,41,26,22,84,48,25,30.17,30.04,19,1,19,0.20
2012-1-25,47,43,41,43,41,39,95,91,82,30.13,29.90,12,1,15,0.51
2012-1-26,59,47,36,41,32,18,92,63,23,29.99,29.89,22,2,22,0.01
2012-1-27,62,46,31,39,30,23,86,58,32,30.28,29.82,27,3,27,0.00
2012-1-28,50,39,28,28,20,14,77,50,26,30.52,30.28,15,1,15,0.00
2012-1-29,59,43,28,29,25,18,73,51,30,30.40,30.23,18,2,21,0.00
2012-1-30,65,52,40,50,38,28,81,59,43,30.23,29.97,28,5,28,0.00
2012-1-31,70,60,49,54,50,41,85,69,46,30.07,29.90,31,5,31,0.00
2012-2-1,65,52,41,42,34,27,75,52,29,30.20,30.06,15,0,15,0.00
2012-2-2,65,52,36,50,39,27,77,61,43,30.23,30.05,19,2,19,0.00
2012-2-3,58,54,50,55,48,42,97,82,59,30.06,29.86,22,3,22,0.45
2012-2-4,51,43,38,50,38,30,97,82,67,30.35,29.99,18,2,18,0.00
2012-2-5,47,39,31,33,30,25,79,70,47,30.45,30.35,16,1,16,0.00
2012-2-6,54,40,28,32,26,22,88,60,32,30.39,30.21,6,0,6,0.00
2012-2-7,52,43,35,38,33,27,86,70,42,30.46,30.24,9,2,14,0.00
2012-2-8,40,38,36,34,32,30,91,81,73,30.52,30.40,6,1,10,0.00
2012-2-9,48,41,36,39,33,29,90,73,54,30.40,30.16,12,1,12,0.13
2012-2-10,41,35,23,39,26,7,91,72,39,30.49,30.11,22,4,22,0.01
2012-2-11,28,22,16,8,6,3,61,50,36,30.80,30.48,23,5,23,0.00
2012-2-12,36,28,17,16,8,4,68,44,27,30.73,30.23,20,0,20,0.00
2012-2-13,36,33,30,35,31,18,95,90,51,30.23,29.84,34,5,34,0.07
2012-2-14,50,41,32,39,35,31,96,82,60,30.03,29.90,14,2,14,0.00
2012-2-15,50,45,40,49,44,37,97,94,86,30.10,29.83,16,1,16,0.12
2012-2-16,55,46,39,44,36,30,96,68,40,30.34,30.10,14,1,14,0.00
2012-2-17,55,47,37,45,39,31,86,74,56,30.21,30.08,10,0,10,0.00
2012-2-18,48,44,38,44,38,30,91,82,72,30.13,30.05,16,3,17,0.00
2012-2-19,56,45,34,35,32,29,83,64,41,30.16,30.01,12,0,12,0.00
2012-2-20,54,47,38,47,39,31,89,76,57,30.04,29.74,35,7,35,0.06
2012-2-21,61,49,34,31,28,24,70,46,26,30.11,29.84,21,2,21,0.00
2012-2-22,74,54,34,41,33,28,84,50,22,29.84,29.44,13,1,13,0.00
2012-2-23,68,56,45,42,35,24,64,45,36,29.94,29.21,29,5,29,0.00
2012-2-24,53,44,36,24,22,18,60,43,27,30.31,29.94,19,3,19,0.00
2012-2-25,61,46,29,30,24,21,81,45,22,30.38,30.06,25,3,25,0.00
2012-2-26,64,54,44,42,32,23,64,44,33,30.19,29.98,28,5,28,0.00
2012-2-27,64,55,46,42,31,25,64,40,30,30.39,30.19,19,2,19,0.00
2012-2-28,68,58,50,62,50,32,87,73,46,30.21,29.68,38,5,38,0.03
2012-2-29,66,57,43,44,27,23,58,33,21,29.99,29.76,20,1,21,0.00
2012-3-1,78,60,40,60,33,25,83,40,15,29.91,29.42,31,5,31,0.00
2012-3-2,65,52,38,61,38,28,88,61,36,29.98,29.37,22,3,22,0.00
2012-3-3,55,46,35,32,23,13,74,44,20,30.16,29.97,24,1,24,0.00
2012-3-4,70,52,31,34,27,19,71,42,20,30.19,30.00,25,2,25,0.00
2012-3-5,72,57,40,37,30,18,56,37,24,30.36,30.10,25,3,25,0.00
2012-3-6,70,62,56,50,44,33,62,51,42,30.10,29.88,46,11,46,0.00
2012-3-7,68,64,61,58,55,49,82,71,62,29.93,29.84,37,10,37,0.00
2012-3-8,63,43,36,58,38,30,91,82,73,30.53,29.90,28,9,28,0.19
2012-3-9,61,46,30,31,27,23,82,52,26,30.59,30.42,16,5,16,0.00
2012-3-10,65,50,32,44,32,27,88,53,27,30.42,30.15,18,2,18,0.07
2012-3-11,54,49,46,52,47,43,96,93,85,30.15,29.87,18,3,18,0.73
2012-3-12,78,62,52,53,50,45,93,67,33,30.00,29.84,24,6,24,0.00
2012-3-13,83,67,54,60,56,48,95,70,42,30.03,29.93,25,4,25,0.00
2012-3-14,74,68,62,63,60,58,93,77,62,30.05,29.96,29,4,29,0.00
2012-3-15,80,71,64,64,62,59,86,74,58,30.06,29.97,26,4,26,0.00
2012-3-16,78,69,64,64,62,60,92,78,62,30.04,29.94,23,4,23,0.00
2012-3-17,77,70,66,63,61,58,85,73,58,29.96,29.87,29,6,29,0.00
2012-3-18,76,69,65,62,60,58,81,72,60,29.94,29.81,30,6,30,0.00
2012-3-19,69,62,55,63,58,54,98,88,75,29.81,29.66,27,3,27,2.75
2012-3-20,58,55,52,56,54,52,98,96,89,29.85,29.72,11,0,11,1.40
2012-3-21,60,54,46,54,51,44,97,90,71,29.86,29.73,25,1,25,0.38
2012-3-22,57,50,45,49,46,43,96,87,63,29.91,29.79,21,2,21,0.20
2012-3-23,64,52,42,49,45,41,96,78,50,30.01,29.90,17,1,17,0.01
2012-3-24,76,59,42,51,45,40,94,64,34,30.08,29.97,10,0,10,0.00
2012-3-25,80,64,46,52,48,43,92,60,32,30.12,29.99,10,0,11,0.00
2012-3-26,82,67,50,58,52,46,92,62,39,30.08,29.93,21,2,21,0.00
2012-3-27,83,71,60,60,56,52,85,61,37,30.00,29.91,28,4,28,0.00
2012-3-28,82,71,60,62,58,54,85,66,49,30.00,29.86,26,4,26,0.00
2012-3-29,81,70,58,63,58,54,91,68,49,29.90,29.75,26,4,26,0.00
2012-3-30,84,72,60,64,60,57,94,70,42,29.86,29.71,19,2,19,0.00
2012-3-31,85,72,59,68,62,56,93,72,46,29.85,29.73,15,1,15,0.00
2012-4-1,88,75,64,66,64,61,95,70,42,29.74,29.54,26,5,26,0.00
2012-4-2,83,74,66,65,62,56,88,67,48,29.73,29.56,28,5,28,0.00
2012-4-3,72,65,59,60,57,55,88,77,60,29.89,29.70,17,1,17,0.04
2012-4-4,72,63,57,58,52,42,90,70,39,29.82,29.71,25,2,25,0.00
2012-4-5,65,58,52,56,51,45,91,78,65,29.99,29.74,14,1,14,0.00
2012-4-6,67,58,49,54,51,46,92,79,62,30.12,29.99,13,0,13,0.00
2012-4-7,66,59,55,57,53,48,93,80,60,30.31,30.03,19,2,21,0.07
2012-4-8,69,60,53,58,53,45,91,78,54,30.35,30.21,14,1,14,0.00
2012-4-9,77,67,59,60,57,54,94,73,48,30.22,30.03,12,0,13,0.00
2012-4-10,72,65,58,58,54,44,92,69,50,30.14,30.04,11,1,13,0.00
2012-4-11,64,58,50,52,47,43,86,69,52,30.27,30.11,18,1,18,0.21
2012-4-12,69,59,52,53,49,44,87,69,53,30.14,29.91,22,3,22,0.00
2012-4-13,73,66,58,65,60,50,89,80,70,29.94,29.77,26,5,26,0.04
2012-4-14,75,71,66,66,64,62,92,78,68,29.87,29.60,31,7,31,0.07
2012-4-15,75,67,60,64,55,40,96,66,38,29.85,29.57,30,4,30,1.04
2012-4-16,69,60,50,45,42,35,74,52,31,30.24,29.85,16,0,17,0.00
2012-4-17,75,63,49,53,46,41,82,57,32,30.29,30.16,14,1,14,0.00
2012-4-18,76,65,53,56,51,47,85,62,45,30.17,29.95,24,4,24,0.00
2012-4-19,80,69,57,61,54,48,80,59,41,29.95,29.71,31,5,31,0.03
2012-4-20,67,57,50,62,47,0,93,70,47,30.05,29.75,20,2,20,0.24
2012-4-21,70,57,41,47,42,38,91,62,33,30.09,29.94,10,0,10,0.00
2012-4-22,67,59,51,47,41,33,82,53,31,30.21,30.00,18,2,22,0.00
2012-4-23,70,57,43,45,41,37,86,57,33,30.26,30.02,11,0,11,0.00
2012-4-24,85,68,48,59,51,44,87,58,36,30.02,29.68,30,4,30,0.00
2012-4-25,86,76,66,68,62,56,80,61,47,29.74,29.60,31,4,32,0.00
2012-4-26,86,75,65,69,61,48,93,65,29,29.86,29.73,13,0,13,0.00
2012-4-27,83,75,68,66,63,58,86,68,51,29.83,29.59,35,6,35,0.00
2012-4-28,78,73,69,65,64,62,84,73,60,29.87,29.69,21,3,21,0.00
2012-4-29,80,73,69,67,65,62,82,75,64,29.94,29.81,20,3,20,0.00
2012-4-30,82,71,59,70,64,57,96,80,64,30.00,29.79,21,2,21,0.55
2012-5-1,83,74,63,68,64,56,89,71,55,29.86,29.71,35,7,35,0.29
2012-5-2,83,76,70,69,65,62,81,70,60,29.83,29.73,30,8,30,0.00
2012-5-3,90,79,68,72,68,64,87,70,55,29.85,29.78,27,5,27,0.00
2012-5-4,88,79,73,73,69,66,81,73,57,29.86,29.73,20,4,23,0.00
2012-5-5,87,78,68,70,66,61,91,68,43,29.83,29.73,25,4,25,0.00
2012-5-6,86,77,70,73,70,67,88,77,60,29.80,29.73,22,2,22,0.00
2012-5-7,75,70,64,70,62,52,91,76,64,30.00,29.80,22,2,22,0.00
2012-5-8,73,65,58,53,49,43,75,57,35,30.10,29.99,13,1,13,0.00
2012-5-9,77,65,50,52,48,45,91,58,34,30.08,29.95,11,0,11,0.00
2012-5-10,82,69,52,55,51,47,88,55,33,29.97,29.86,16,1,16,0.00
2012-5-11,69,64,59,59,55,51,81,72,57,30.07,29.89,18,0,18,0.01
2012-5-12,73,66,60,60,58,55,94,76,56,30.18,30.07,12,0,12,0.18
2012-5-13,77,68,60,60,57,52,88,68,44,30.21,30.09,14,1,14,0.00
2012-5-14,78,69,58,58,52,44,87,59,30,30.16,30.02,14,1,14,0.00
2012-5-15,83,70,53,56,50,46,90,55,30,30.09,29.97,11,0,11,0.00
2012-5-16,88,73,54,59,55,50,90,56,31,30.05,29.94,9,0,9,0.00
2012-5-17,89,76,59,60,56,51,88,54,29,30.00,29.85,18,1,18,0.00
2012-5-18,88,77,64,61,58,55,77,53,37,29.89,29.76,24,3,24,0.00
2012-5-19,87,77,67,60,57,51,73,51,30,29.96,29.81,37,4,37,0.00
2012-5-20,78,73,66,64,61,58,86,66,52,30.12,29.93,32,1,32,0.02
2012-5-21,79,70,60,62,53,46,88,59,34,30.21,30.07,17,1,17,0.10
2012-5-22,84,71,55,53,48,45,72,46,27,30.10,29.78,14,1,14,0.00
2012-5-23,90,78,65,64,58,50,65,50,35,29.78,29.49,35,5,35,0.00
2012-5-24,86,78,72,70,66,60,76,66,55,29.66,29.45,34,6,34,0.00
2012-5-25,89,80,73,70,68,67,82,68,52,29.86,29.66,26,4,27,0.00
2012-5-26,88,81,74,70,68,66,84,66,49,29.95,29.85,25,4,25,0.00
2012-5-27,90,81,70,66,62,56,79,55,33,29.94,29.76,27,5,27,0.00
2012-5-28,92,82,72,72,66,61,77,58,46,29.82,29.71,25,3,25,0.09
2012-5-29,94,80,68,68,64,59,89,62,34,29.93,29.71,28,1,28,0.17
2012-5-30,89,77,65,64,60,54,86,58,32,29.89,29.68,15,1,15,0.00
2012-5-31,77,68,61,63,56,46,95,67,41,30.00,29.63,23,2,23,0.18
2012-6-1,69,60,53,54,50,45,89,71,49,30.06,29.93,11,0,11,0.13
2012-6-2,86,70,54,64,58,52,95,69,39,29.96,29.80,10,0,10,0.06
2012-6-3,92,80,69,73,68,63,88,68,50,29.85,29.72,17,1,17,0.05
2012-6-4,88,77,64,71,66,60,97,72,42,29.93,29.72,25,1,25,2.08
2012-6-5,87,79,70,70,67,63,86,68,47,29.85,29.73,15,1,15,0.00
2012-6-6,85,77,68,64,60,57,74,58,42,29.91,29.80,17,1,17,0.00
2012-6-7,82,74,67,60,56,53,69,55,41,30.05,29.90,13,1,13,0.00
2012-6-8,85,74,60,58,55,50,78,54,32,30.06,29.86,14,0,14,0.00
2012-6-9,90,78,62,67,62,57,84,60,41,29.88,29.67,21,2,21,0.00
2012-6-10,91,82,72,70,68,63,80,63,49,29.75,29.66,29,4,29,0.00
2012-6-11,85,80,75,74,70,68,80,72,63,29.98,29.72,19,1,19,0.00
2012-6-12,88,78,69,69,58,49,86,53,27,30.13,29.95,15,1,16,0.00
2012-6-13,84,76,66,68,62,54,71,61,53,30.03,29.90,12,1,17,0.00
2012-6-14,92,81,68,72,66,61,81,64,46,29.94,29.74,19,2,19,0.00
2012-6-15,85,77,65,72,67,62,95,72,56,29.98,29.77,23,2,23,0.31
2012-6-16,90,79,71,72,68,65,84,70,51,30.07,29.93,19,2,19,0.00
2012-6-17,92,80,71,72,69,66,86,70,47,29.99,29.76,24,4,24,0.00
2012-6-18,92,83,73,69,66,57,80,58,33,29.78,29.72,26,6,26,0.00
2012-6-19,90,81,73,70,68,65,82,66,47,29.86,29.77,27,6,27,0.00
2012-6-20,88,81,75,70,68,64,80,66,48,29.93,29.86,26,6,26,0.00
2012-6-21,83,77,68,72,68,64,92,74,65,30.07,29.92,16,2,16,0.01
2012-6-22,90,79,68,69,64,58,94,64,38,30.02,29.87,14,1,14,0.00
2012-6-23,97,84,68,70,64,59,83,54,33,29.90,29.82,16,2,22,0.00
2012-6-24,100,87,71,69,65,62,79,50,32,29.95,29.84,12,0,12,0.00
2012-6-25,104,90,73,70,66,61,82,49,25,29.91,29.74,11,0,11,0.00
2012-6-26,103,91,77,72,69,65,79,51,30,29.82,29.71,15,0,15,0.00
2012-6-27,100,90,78,69,64,56,62,44,30,29.90,29.76,18,2,18,0.00
2012-6-28,103,88,67,67,61,56,70,43,24,29.98,29.88,19,2,19,0.00
2012-6-29,100,89,76,69,63,60,66,44,28,29.95,29.79,20,3,20,0.00
2012-6-30,99,88,73,69,63,59,73,47,31,29.87,29.78,19,3,19,0.00
2012-7-1,96,86,73,71,65,62,71,51,34,29.96,29.86,21,3,21,0.00
2012-7-2,96,82,73,72,69,65,84,65,37,30.02,29.91,28,2,28,0.11
2012-7-3,98,87,76,70,63,50,79,50,21,29.97,29.83,24,3,24,0.00
2012-7-4,99,88,75,70,63,58,77,47,27,29.95,29.84,20,3,20,0.00
2012-7-5,100,89,76,69,64,59,69,45,27,29.99,29.86,16,2,16,0.00
2012-7-6,103,90,74,67,63,60,73,44,26,30.00,29.87,18,1,18,0.00
2012-7-7,97,86,77,72,67,60,82,56,32,30.05,29.91,12,0,12,0.04
2012-7-8,95,85,78,70,66,62,73,55,35,30.01,29.88,13,0,13,0.00
2012-7-9,96,85,74,72,68,61,87,59,34,29.96,29.85,20,2,20,0.00
2012-7-10,94,85,74,71,66,56,84,55,33,29.97,29.87,18,2,20,0.00
2012-7-11,96,86,73,70,63,54,86,51,25,29.98,29.86,15,1,15,0.00
2012-7-12,98,87,74,70,64,56,78,49,27,29.96,29.86,13,0,13,0.00
2012-7-13,98,84,75,71,66,57,78,59,28,29.99,29.89,30,1,30,0.02
2012-7-14,98,82,70,70,66,56,88,61,26,30.02,29.90,21,1,21,0.00
2012-7-15,93,80,67,69,66,63,91,66,40,30.05,29.91,20,1,20,0.00
2012-7-16,96,85,74,72,68,61,87,59,34,29.99,29.83,21,3,21,0.00
2012-7-17,99,88,77,70,66,59,76,50,29,29.92,29.80,19,3,19,0.00
2012-7-18,103,90,77,69,65,60,73,46,26,29.96,29.82,20,2,20,0.00
2012-7-19,106,90,75,72,67,62,88,51,25,29.99,29.83,25,2,25,0.61
2012-7-20,104,89,73,71,65,55,88,51,22,29.97,29.88,14,1,14,0.00
2012-7-21,102,89,73,71,60,53,68,41,21,29.97,29.86,14,1,14,0.00
2012-7-22,101,90,79,73,64,56,69,44,26,30.02,29.91,15,1,17,0.00
2012-7-23,100,90,79,71,67,61,73,49,29,30.05,29.92,19,2,19,0.00
2012-7-24,100,89,78,71,67,61,77,51,30,30.00,29.82,21,3,21,0.00
2012-7-25,102,91,80,71,67,63,70,48,29,29.87,29.70,24,4,24,0.00
2012-7-26,97,87,78,75,69,65,76,55,38,29.88,29.73,19,2,19,0.04
2012-7-27,103,88,73,73,66,57,91,55,24,29.97,29.88,15,1,15,0.00
2012-7-28,108,93,77,70,63,52,74,41,17,30.04,29.90,14,1,15,0.00
2012-7-29,108,94,77,65,60,54,62,35,20,29.98,29.82,18,1,18,0.00
2012-7-30,109,96,81,61,58,55,46,30,20,29.90,29.77,18,2,18,0.00
2012-7-31,110,96,82,65,60,55,49,31,20,29.88,29.75,19,2,19,0.00
2012-8-1,111,97,82,67,63,56,57,36,20,29.82,29.65,18,2,18,0.00
2012-8-2,112,98,84,65,62,57,48,32,18,29.74,29.60,16,1,16,0.00
2012-8-3,107,94,82,68,64,60,56,39,26,29.75,29.63,19,2,20,0.00
2012-8-4,109,95,83,72,65,60,62,40,23,29.90,29.72,22,4,22,0.00
2012-8-5,93,84,73,73,65,53,86,56,29,30.12,29.90,22,1,22,0.02
2012-8-6,100,87,72,70,58,47,66,40,20,30.08,29.90,12,0,12,0.00
2012-8-7,104,90,76,70,59,48,67,38,21,29.94,29.81,10,0,10,0.00
2012-8-8,103,88,76,70,65,57,75,49,24,29.92,29.78,16,1,22,0.00
2012-8-9,98,85,73,68,63,56,81,52,26,29.89,29.80,19,2,19,0.00
2012-8-10,92,81,70,62,55,44,73,43,22,29.99,29.89,19,2,19,0.00
2012-8-11,92,79,63,54,51,47,66,40,24,30.02,29.87,14,1,14,0.00
2012-8-12,98,84,72,70,61,50,62,46,31,29.94,29.76,18,2,21,0.00
2012-8-13,87,80,72,59,57,54,62,46,34,30.01,29.84,17,1,17,0.00
2012-8-14,83,73,67,63,60,54,80,64,38,30.02,29.86,19,0,19,0.09
2012-8-15,98,82,66,69,64,60,84,58,34,29.91,29.78,19,3,19,0.00
2012-8-16,100,85,73,73,68,55,80,59,32,29.99,29.81,21,2,21,0.07
2012-8-17,87,77,68,58,54,50,61,46,29,30.04,29.90,13,1,13,0.00
2012-8-18,76,71,67,68,64,52,92,79,44,29.99,29.84,15,0,15,0.21
2012-8-19,87,74,62,66,62,59,94,69,40,29.96,29.87,11,0,11,0.00
2012-8-20,90,76,61,62,52,42,86,49,20,30.02,29.90,13,0,13,0.00
2012-8-21,93,79,63,58,53,47,77,45,22,30.04,29.97,13,0,13,0.00
2012-8-22,94,81,66,63,57,49,83,48,25,30.09,29.96,24,2,24,0.00
2012-8-23,93,79,65,60,55,49,76,48,23,30.05,29.91,23,2,23,0.00
2012-8-24,91,81,70,66,60,54,61,49,31,29.95,29.80,15,3,20,0.00
2012-8-25,87,79,71,72,70,65,93,75,57,29.92,29.79,31,4,31,1.69
2012-8-26,91,78,69,74,70,66,97,78,47,29.98,29.87,14,1,14,0.65
2012-8-27,91,81,72,71,68,63,90,66,41,30.07,29.96,17,2,17,0.00
2012-8-28,92,81,67,66,60,53,86,53,28,30.09,29.93,15,1,15,0.00
2012-8-29,94,81,67,62,56,48,81,46,22,29.98,29.82,11,1,20,0.00
2012-8-30,95,82,69,67,61,51,72,50,32,29.91,29.74,20,2,20,0.00
2012-8-31,87,78,72,73,68,64,94,71,50,29.90,29.73,17,2,17,0.08
2012-9-1,98,85,76,67,63,58,73,51,28,29.97,29.85,18,1,18,0.00
2012-9-2,103,87,72,72,67,60,86,55,26,29.92,29.78,12,0,12,0.00
2012-9-3,105,90,74,70,66,59,77,47,24,29.87,29.76,15,1,15,0.00
2012-9-4,103,90,78,68,64,57,68,45,24,29.85,29.72,13,0,13,0.00
2012-9-5,100,88,76,73,67,61,77,53,29,29.81,29.74,11,0,11,0.01
2012-9-6,95,86,78,72,68,65,71,55,39,29.89,29.77,12,0,12,0.00
2012-9-7,103,79,64,71,65,59,90,66,29,30.01,29.64,34,3,34,0.09
2012-9-8,80,69,58,60,51,43,88,57,29,30.16,30.01,15,1,15,0.00
2012-9-9,88,71,53,53,50,45,90,52,25,30.14,30.04,16,0,16,0.00
2012-9-10,90,74,56,58,52,45,84,51,23,30.13,29.98,13,0,13,0.00
2012-9-11,91,78,64,58,55,50,77,48,25,30.07,29.94,20,2,20,0.00
2012-9-12,90,78,67,61,57,52,73,51,29,30.05,29.94,23,3,23,0.00
2012-9-13,83,71,62,68,61,55,81,70,51,30.23,30.02,21,1,21,0.13
2012-9-14,62,59,57,60,57,55,97,94,79,30.25,30.19,14,1,14,0.40
2012-9-15,72,66,61,65,62,60,97,89,76,30.21,30.08,6,0,6,0.11
2012-9-16,73,68,65,65,63,60,94,83,66,30.09,29.96,9,0,9,0.00
2012-9-17,79,70,60,64,62,58,95,77,56,29.97,29.82,20,0,20,0.00
2012-9-18,74,65,55,60,49,42,88,59,32,30.14,29.93,18,1,18,0.02
2012-9-19,84,69,54,52,49,47,82,53,29,30.10,29.95,20,3,22,0.00
2012-9-20,86,73,58,61,56,50,80,56,40,30.01,29.89,14,1,14,0.00
2012-9-21,93,78,65,61,57,49,77,53,28,29.94,29.83,15,1,15,0.00
2012-9-22,85,73,58,54,48,40,78,43,25,30.17,29.94,17,1,17,0.00
2012-9-23,76,65,54,56,47,38,69,53,39,30.28,30.12,12,1,12,0.01
2012-9-24,90,74,61,64,56,49,66,55,35,30.14,29.86,21,2,21,0.00
2012-9-25,93,83,75,64,59,52,65,45,32,29.88,29.75,27,4,27,0.00
2012-9-26,82,75,67,68,62,55,92,66,42,30.05,29.80,28,1,28,0.27
2012-9-27,78,70,63,66,63,61,95,78,62,30.13,30.03,20,1,20,0.39
2012-9-28,80,72,64,67,64,61,93,77,58,30.10,29.99,11,0,11,0.02
2012-9-29,72,68,65,67,65,63,94,89,78,30.04,29.95,10,0,10,0.33
2012-9-30,74,67,62,64,56,47,94,70,40,29.97,29.86,12,0,12,0.00
2012-10-1,79,68,61,55,50,43,69,55,31,29.87,29.78,21,1,21,0.00
2012-10-2,77,66,57,52,46,38,70,52,26,29.97,29.87,11,0,11,0.00
2012-10-3,79,65,49,56,50,45,90,60,32,30.00,29.91,18,2,18,0.00
2012-10-4,81,67,58,63,55,47,85,65,53,30.16,30.00,19,2,19,0.00
2012-10-5,58,51,45,47,43,37,81,74,64,30.28,30.13,22,4,22,0.00
2012-10-6,48,44,40,38,35,31,85,70,54,30.35,30.27,15,2,15,0.01
2012-10-7,54,46,36,36,32,27,85,61,37,30.38,30.23,12,0,13,0.00
2012-10-8,63,48,34,41,36,32,94,66,36,30.27,30.06,18,2,18,0.00
2012-10-9,64,56,47,55,48,38,86,75,67,30.08,29.89,23,3,23,0.00
2012-10-10,67,59,46,54,40,33,86,53,30,30.30,30.08,14,1,14,0.00
2012-10-11,77,67,60,66,56,42,84,68,48,30.14,30.01,22,2,22,0.00
2012-10-12,72,68,65,68,64,61,93,87,73,30.17,30.05,28,2,28,0.00
2012-10-13,76,69,64,69,65,62,95,88,75,30.04,29.69,28,5,28,0.24
2012-10-14,77,66,55,63,51,42,93,62,31,30.07,29.69,19,1,19,0.00
2012-10-15,85,66,48,51,47,44,91,57,26,30.07,29.88,15,1,15,0.00
2012-10-16,80,67,55,55,50,46,77,56,32,29.90,29.58,30,3,30,0.00
2012-10-17,79,68,58,64,52,31,89,61,29,29.80,29.43,22,2,22,0.00
2012-10-18,69,60,50,35,26,20,50,29,16,29.91,29.80,30,3,30,0.00
2012-10-19,69,58,47,36,28,23,64,33,23,29.92,29.83,22,1,22,0.00
2012-10-20,83,62,41,57,45,35,80,57,34,29.86,29.71,16,1,16,0.00
2012-10-21,84,74,64,69,64,56,91,72,60,29.80,29.70,27,4,27,0.00
2012-10-22,78,74,70,68,65,60,86,76,57,29.89,29.79,29,6,29,0.01
2012-10-23,79,73,69,68,66,64,89,79,66,29.88,29.78,29,6,29,0.00
2012-10-24,83,74,67,65,63,60,84,70,50,29.90,29.72,29,6,29,0.00
2012-10-25,72,58,45,64,50,36,85,74,64,30.23,29.72,27,3,27,0.00
2012-10-26,50,43,38,36,30,28,77,63,45,30.45,30.23,22,2,22,0.00
2012-10-27,51,41,31,31,28,26,83,62,38,30.42,30.25,6,0,6,0.00
2012-10-28,56,43,31,34,28,25,85,58,31,30.36,30.25,10,0,10,0.00
2012-10-29,63,48,32,34,30,27,87,55,29,30.35,30.13,13,1,13,0.00
2012-10-30,76,55,37,42,36,31,80,53,27,30.12,29.88,18,1,18,0.00
2012-10-31,67,55,43,41,37,34,77,54,31,30.08,29.91,8,0,8,0.00
2012-11-1,78,59,42,45,40,36,85,55,28,30.05,29.92,13,0,13,0.00
2012-11-2,86,66,48,53,48,43,86,57,25,29.93,29.80,27,2,27,0.00
2012-11-3,68,57,49,51,39,34,62,50,36,30.17,29.89,11,1,11,0.00
2012-11-4,68,53,41,42,37,34,83,57,29,30.23,30.07,10,0,10,0.00
2012-11-5,64,53,44,47,40,37,85,63,44,30.14,30.02,19,1,19,0.00
2012-11-6,67,52,36,41,36,32,91,59,34,30.17,30.05,16,0,16,0.00
2012-11-7,64,51,37,33,31,28,77,49,27,30.22,30.10,11,0,11,0.00
2012-11-8,74,58,44,48,40,31,69,52,34,30.12,29.89,28,5,28,0.00
2012-11-9,77,68,58,60,56,46,84,66,56,29.94,29.81,32,7,32,0.00
2012-11-10,75,69,62,59,56,54,83,64,50,29.92,29.74,39,9,39,0.00
2012-11-11,70,50,34,61,44,24,95,80,65,30.32,29.70,31,3,31,0.77
2012-11-12,51,39,26,28,25,19,87,60,32,30.53,30.32,13,0,13,0.00
2012-11-13,58,43,29,31,25,20,85,55,25,30.55,30.36,13,0,13,0.00
2012-11-14,58,45,31,32,28,25,85,54,30,30.46,30.30,15,1,15,0.00
2012-11-15,61,46,33,33,30,27,85,57,32,30.39,30.29,14,0,14,0.00
2012-11-16,62,47,34,37,32,29,88,61,30,30.47,30.37,9,0,9,0.00
2012-11-17,61,48,34,35,30,26,84,54,27,30.44,30.30,17,1,17,0.00
2012-11-18,64,52,43,38,34,31,65,51,33,30.32,30.18,21,4,21,0.00
2012-11-19,71,59,50,51,46,37,79,63,47,30.20,30.09,20,1,20,0.02
2012-11-20,71,56,44,54,44,39,92,67,32,30.24,30.14,7,0,7,0.00
2012-11-21,76,57,39,46,38,33,92,55,23,30.28,30.06,18,3,18,0.00
2012-11-22,75,64,56,55,47,41,73,54,42,30.22,29.91,30,5,31,0.01
2012-11-23,58,46,33,42,26,18,75,47,30,30.52,30.22,21,1,21,0.00
2012-11-24,54,41,26,25,21,16,80,48,28,30.49,30.05,16,1,16,0.00
2012-11-25,65,51,40,37,30,22,65,45,32,30.04,29.84,12,1,12,0.00
2012-11-26,48,42,35,37,32,25,81,67,48,30.42,29.89,1,1,1,0.00
2012-11-27,47,36,26,27,25,23,87,67,39,30.53,30.34,8,0,8,0.00
2012-11-28,58,43,27,36,30,22,86,62,42,30.47,30.23,18,1,18,0.00
2012-11-29,67,54,44,40,35,32,67,51,29,30.23,30.03,28,4,28,0.00
2012-11-30,60,54,45,54,47,34,86,76,56,30.13,30.00,16,3,16,0.00
2012-12-1,76,67,57,61,58,53,92,75,52,30.01,29.81,35,3,35,0.00
2012-12-2,75,64,53,60,55,49,94,73,53,30.04,29.91,21,3,21,0.00
2012-12-3,75,68,56,60,57,48,80,69,52,29.97,29.78,35,7,35,0.11
2012-12-4,62,54,39,49,34,26,81,50,27,30.33,29.97,17,2,17,0.01
2012-12-5,61,48,36,37,31,27,77,54,29,30.35,30.06,22,1,22,0.00
2012-12-6,62,52,43,49,43,36,88,73,59,30.06,29.81,19,3,19,0.00
2012-12-7,56,52,49,52,49,45,95,90,84,29.91,29.80,5,0,5,0.02
2012-12-8,55,51,47,50,47,44,94,88,77,29.95,29.82,9,0,9,0.00
2012-12-9,50,45,29,47,36,12,94,73,44,30.16,29.76,16,3,19,0.00
2012-12-10,34,27,22,14,12,9,66,52,36,30.22,30.11,18,2,18,0.00
2012-12-11,50,32,18,18,12,9,71,46,21,30.26,30.15,13,1,13,0.00
2012-12-12,51,37,22,20,14,10,65,41,22,30.34,30.20,21,3,21,0.00
2012-12-13,60,47,37,26,20,15,44,35,26,30.26,30.13,29,5,29,0.00
2012-12-14,53,46,42,43,31,23,92,56,37,30.16,29.77,22,3,22,0.18
2012-12-15,62,52,45,48,40,35,95,66,41,29.79,29.68,20,3,20,0.00
2012-12-16,67,51,41,39,35,27,84,58,25,29.77,29.62,18,1,18,0.00
2012-12-17,54,43,36,38,34,31,89,72,47,29.87,29.76,10,1,10,0.00
2012-12-18,60,47,38,36,33,30,82,60,34,29.84,29.75,12,1,12,0.00
2012-12-19,67,55,41,59,46,32,86,72,40,29.82,29.45,29,4,29,0.00
2012-12-20,52,38,28,38,20,9,72,49,27,30.39,29.55,33,8,35,0.00
2012-12-21,56,38,21,19,16,12,75,45,22,30.43,30.26,10,0,10,0.00
2012-12-22,62,47,31,32,20,16,59,37,17,30.27,29.97,23,2,23,0.00
2012-12-23,59,46,31,46,35,24,90,68,50,29.97,29.82,16,1,16,0.00
2012-12-24,36,30,23,24,21,18,83,71,55,30.11,29.95,13,1,13,0.00
2012-12-25,30,26,21,21,18,11,81,73,64,30.21,29.99,30,8,30,0.00
2012-12-26,31,23,14,17,12,7,73,64,54,30.35,30.18,21,3,21,0.00
2012-12-27,36,30,24,27,23,16,83,75,66,30.18,29.97,18,1,18,0.00
2012-12-28,34,31,24,29,24,12,89,76,56,30.22,30.01,10,1,10,0.01
2012-12-29,40,27,17,16,13,10,75,58,37,30.46,30.22,12,1,12,0.00
2012-12-30,42,32,20,28,20,14,82,61,44,30.46,30.23,19,3,19,0.00
2012-12-31,38,36,34,36,34,29,96,93,73,30.24,30.01,18,2,18,0.87
2013-1-1,38,30,23,37,28,18,96,90,83,30.34,30.09,14,2,14,0.00